Time;durP1;ratioP1;P1;durP2;ratioP2;P2;SDS_P1;SDS_P2;PMS_P1;PMS_P2;Temp;Humidity;BMP_temperature;BMP_pressure;BME280_temperature;BME280_humidity;BME280_pressure;Samples;Min_cycle;Max_cycle;Signal;HPM_P1;HPM_P2
2021/04/14 00:00:24;;;;;;;6.90;2.70;;;3.70;99.90;;;;;;5017396;28;20473;-76
2021/04/14 00:02:50;;;;;;;4.45;2.42;;;3.60;99.90;;;;;;5035170;28;20026;-76
2021/04/14 00:05:18;;;;;;;4.68;2.20;;;3.80;99.90;;;;;;5035272;28;20112;-76
2021/04/14 00:07:44;;;;;;;3.75;2.20;;;3.80;99.90;;;;;;5034990;28;20034;-76
2021/04/14 00:10:11;;;;;;;3.83;2.50;;;4.10;99.90;;;;;;5017086;28;20033;-76
2021/04/14 00:12:37;;;;;;;4.32;2.10;;;4.00;99.90;;;;;;5034949;28;20423;-77
2021/04/14 00:15:14;;;;;;;6.30;2.25;;;3.70;99.90;;;;;;5034882;28;20072;-75
2021/04/14 00:17:40;;;;;;;4.65;2.08;;;3.80;99.90;;;;;;5017015;28;20088;-76
2021/04/14 00:20:09;;;;;;;4.00;2.33;;;4.10;99.90;;;;;;5017068;28;20029;-76
2021/04/14 00:22:35;;;;;;;4.88;2.65;;;4.10;99.90;;;;;;5016886;28;20030;-76
2021/04/14 00:25:00;;;;;;;4.20;2.00;;;3.90;99.90;;;;;;5034679;28;20075;-76
2021/04/14 00:27:26;;;;;;;5.60;2.33;;;3.70;99.90;;;;;;5035152;28;20025;-76
2021/04/14 00:29:52;;;;;;;4.88;2.35;;;3.70;99.90;;;;;;5034781;28;20021;-76
2021/04/14 00:32:17;;;;;;;3.40;2.10;;;3.80;99.90;;;;;;5034508;28;20045;-77
2021/04/14 00:34:43;;;;;;;4.25;2.30;;;4.10;99.90;;;;;;5016767;28;20029;-76
2021/04/14 00:37:09;;;;;;;4.05;2.30;;;4.10;99.90;;;;;;5016675;28;20021;-76
2021/04/14 00:39:34;;;;;;;6.25;3.92;;;3.90;99.90;;;;;;5034652;28;20017;-76
2021/04/14 00:42:01;;;;;;;5.55;2.33;;;3.70;99.90;;;;;;5016645;28;20022;-76
2021/04/14 00:44:27;;;;;;;4.65;2.15;;;3.40;99.90;;;;;;5016646;28;20036;-76
2021/04/14 00:46:53;;;;;;;2.58;2.00;;;3.50;99.90;;;;;;5034223;28;20481;-76
2021/04/14 00:49:19;;;;;;;4.35;2.22;;;3.60;99.90;;;;;;5016417;28;20032;-76
2021/04/14 00:51:46;;;;;;;4.00;2.67;;;3.50;99.90;;;;;;5034032;28;20033;-76
2021/04/14 00:54:14;;;;;;;4.15;2.40;;;3.40;99.90;;;;;;5034145;28;20017;-76
2021/04/14 00:56:39;;;;;;;5.10;2.10;;;3.50;99.90;;;;;;5034067;28;20092;-76
2021/04/14 00:59:05;;;;;;;5.57;2.20;;;3.40;99.90;;;;;;5034373;28;20549;-76
2021/04/14 01:01:31;;;;;;;6.68;3.22;;;3.20;99.90;;;;;;5033989;28;20053;-76
2021/04/14 01:03:57;;;;;;;5.32;2.40;;;3.20;99.90;;;;;;5033965;28;20194;-76
2021/04/14 01:06:25;;;;;;;9.95;2.60;;;3.40;99.90;;;;;;5033888;28;20391;-76
2021/04/14 01:08:51;;;;;;;3.88;2.30;;;3.20;99.90;;;;;;5033760;28;20024;-76
2021/04/14 01:11:18;;;;;;;5.80;2.40;;;3.20;99.90;;;;;;5015312;28;20107;-76
2021/04/14 01:13:45;;;;;;;3.78;2.40;;;3.60;99.90;;;;;;5033812;28;20101;-76
2021/04/14 01:16:10;;;;;;;7.32;2.20;;;3.80;99.90;;;;;;5033989;28;20025;-77
2021/04/14 01:18:38;;;;;;;4.40;2.53;;;3.90;99.90;;;;;;5015928;28;20374;-77
2021/04/14 01:21:07;;;;;;;6.30;2.50;;;4.00;99.90;;;;;;5033951;28;20021;-76
2021/04/14 01:23:33;;;;;;;5.03;2.65;;;4.00;99.90;;;;;;5033618;28;20388;-76
2021/04/14 01:26:00;;;;;;;6.15;2.20;;;3.80;99.90;;;;;;5015926;28;20026;-76
2021/04/14 01:28:37;;;;;;;5.65;2.28;;;3.90;99.90;;;;;;5015871;28;20034;-76
2021/04/14 01:31:33;;;;;;;5.15;2.90;;;4.10;99.90;;;;;;5015779;28;20021;-76
2021/04/14 01:34:01;;;;;;;5.72;2.85;;;4.00;99.90;;;;;;5015812;28;20032;-76
2021/04/14 01:36:27;;;;;;;3.88;2.20;;;3.60;99.90;;;;;;5033734;28;20469;-76
2021/04/14 01:38:53;;;;;;;4.38;2.20;;;3.50;99.90;;;;;;5033397;28;20028;-76
2021/04/14 01:41:19;;;;;;;5.43;2.53;;;3.80;99.90;;;;;;5015415;28;20060;-76
2021/04/14 01:43:45;;;;;;;3.90;2.35;;;3.80;99.90;;;;;;5033385;28;20060;-76
2021/04/14 01:46:10;;;;;;;40.63;12.70;;;3.90;99.90;;;;;;5033601;28;20029;-76
2021/04/14 01:48:36;;;;;;;8.60;3.67;;;3.40;99.90;;;;;;5015651;28;20021;-76
2021/04/14 01:51:02;;;;;;;8.05;3.33;;;3.40;99.90;;;;;;5033189;28;20450;-76
2021/04/14 01:53:28;;;;;;;6.63;2.92;;;3.60;99.90;;;;;;5015568;28;20404;-76
2021/04/14 01:55:54;;;;;;;3.92;2.35;;;3.40;99.90;;;;;;5015514;28;20026;-76
2021/04/14 01:58:20;;;;;;;6.05;2.83;;;3.50;99.90;;;;;;5015538;28;20021;-76
2021/04/14 02:00:57;;;;;;;5.93;2.67;;;3.60;99.90;;;;;;5015488;28;20556;-76
2021/04/14 02:03:27;;;;;;;8.32;3.13;;;3.50;99.90;;;;;;5033190;28;20017;-76
2021/04/14 02:05:53;;;;;;;4.93;2.65;;;3.00;99.90;;;;;;5015483;28;20021;-76
2021/04/14 02:08:19;;;;;;;8.35;2.90;;;3.10;99.90;;;;;;5033409;28;20075;-76
2021/04/14 02:10:45;;;;;;;5.85;2.50;;;3.70;99.90;;;;;;5033015;28;20506;-76
2021/04/14 02:13:18;;;;;;;6.88;2.80;;;3.80;99.90;;;;;;5033638;28;20552;-76
2021/04/14 02:15:44;;;;;;;7.20;2.47;;;3.70;99.90;;;;;;5033396;28;20025;-76
2021/04/14 02:18:10;;;;;;;4.22;2.20;;;3.80;99.90;;;;;;5033029;28;20022;-76
2021/04/14 02:20:36;;;;;;;4.40;2.33;;;3.40;99.90;;;;;;5015348;28;20156;-76
2021/04/14 02:23:22;;;;;;;7.43;2.80;;;3.20;99.90;;;;;;5019102;28;20028;-76
2021/04/14 02:25:48;;;;;;;6.50;2.50;;;3.50;99.90;;;;;;5036987;28;20029;-76
2021/04/14 02:28:16;;;;;;;5.07;2.60;;;2.90;99.90;;;;;;5019140;28;20026;-76
2021/04/14 02:30:42;;;;;;;8.27;2.75;;;2.80;99.90;;;;;;5036734;28;20381;-76
2021/04/14 02:33:09;;;;;;;3.92;2.20;;;2.80;99.90;;;;;;5019008;28;20029;-76
2021/04/14 02:35:35;;;;;;;4.70;2.10;;;2.90;99.90;;;;;;5036716;28;20026;-76
2021/04/14 02:38:02;;;;;;;4.18;2.30;;;3.30;99.90;;;;;;5036854;28;20022;-77
2021/04/14 02:40:28;;;;;;;5.50;2.55;;;3.10;99.90;;;;;;5036458;28;20123;-76
2021/04/14 02:42:54;;;;;;;5.55;2.50;;;3.00;99.90;;;;;;5036573;28;20033;-76
2021/04/14 02:45:22;;;;;;;4.55;2.20;;;2.70;99.90;;;;;;5036839;28;20572;-76
2021/04/14 02:47:48;;;;;;;4.45;2.25;;;2.90;99.90;;;;;;5018710;28;20025;-76
2021/04/14 02:50:14;;;;;;;4.15;2.05;;;3.10;99.90;;;;;;5018605;28;20036;-77
2021/04/14 02:52:40;;;;;;;5.63;2.50;;;3.10;99.90;;;;;;5036956;28;20104;-77
2021/04/14 02:55:09;;;;;;;5.28;2.15;;;3.20;99.90;;;;;;5036427;28;20093;-77
2021/04/14 02:57:35;;;;;;;4.50;1.88;;;2.90;99.90;;;;;;5018574;28;20026;-76
2021/04/14 03:00:00;;;;;;;4.10;2.17;;;2.80;99.90;;;;;;5036590;28;20029;-76
2021/04/14 03:02:26;;;;;;;4.85;1.98;;;2.50;99.90;;;;;;5018503;28;20480;-76
2021/04/14 03:04:52;;;;;;;4.03;1.80;;;3.10;99.90;;;;;;5036196;28;20025;-76
2021/04/14 03:07:18;;;;;;;5.15;2.15;;;3.30;99.90;;;;;;5018459;28;20026;-76
2021/04/14 03:09:43;;;;;;;3.53;1.95;;;3.70;99.90;;;;;;5018241;28;20076;-76
2021/04/14 03:12:12;;;;;;;3.58;1.88;;;3.70;99.90;;;;;;5018323;28;20025;-77
2021/04/14 03:14:38;;;;;;;5.65;2.13;;;3.60;99.90;;;;;;5036308;28;20075;-77
2021/04/14 03:17:04;;;;;;;5.68;1.90;;;3.00;99.90;;;;;;5018283;28;20028;-76
2021/04/14 03:19:29;;;;;;;3.90;2.00;;;3.00;99.90;;;;;;5018129;28;20025;-76
2021/04/14 03:21:55;;;;;;;3.30;1.92;;;2.90;99.90;;;;;;5018172;28;20103;-77
2021/04/14 03:24:21;;;;;;;5.25;1.73;;;2.70;99.90;;;;;;5018142;28;20496;-76
2021/04/14 03:26:47;;;;;;;6.20;2.10;;;2.50;99.90;;;;;;5018104;28;20025;-76
2021/04/14 03:29:12;;;;;;;6.18;2.05;;;2.30;99.90;;;;;;5035776;28;20036;-77
2021/04/14 03:31:38;;;;;;;4.75;1.40;;;2.50;99.90;;;;;;5017900;28;20056;-77
2021/04/14 03:34:04;;;;;;;8.30;2.10;;;3.10;99.90;;;;;;5016957;28;20025;-77
2021/04/14 03:36:29;;;;;;;4.50;1.88;;;2.90;99.90;;;;;;5017897;28;20021;-76
2021/04/14 03:38:55;;;;;;;5.60;1.92;;;2.70;99.90;;;;;;5017737;28;20507;-77
2021/04/14 03:41:21;;;;;;;4.28;2.20;;;2.80;99.90;;;;;;5035257;28;20057;-77
2021/04/14 03:43:49;;;;;;;5.30;2.30;;;3.00;99.90;;;;;;5035813;28;20034;-77
2021/04/14 03:46:16;;;;;;;5.60;2.40;;;3.10;99.90;;;;;;5017677;28;20037;-77
2021/04/14 03:48:42;;;;;;;6.65;2.17;;;3.10;99.90;;;;;;5035357;28;20028;-77
2021/04/14 03:51:08;;;;;;;4.05;1.65;;;3.30;99.90;;;;;;5035213;28;20033;-77
2021/04/14 03:53:37;;;;;;;4.15;1.75;;;3.50;99.90;;;;;;5035573;28;20097;-76
2021/04/14 03:56:09;;;;;;;7.20;2.20;;;3.70;99.90;;;;;;5035525;28;20017;-77
2021/04/14 03:58:36;;;;;;;2.95;1.75;;;3.60;99.90;;;;;;5017503;28;20156;-77
2021/04/14 04:01:06;;;;;;;4.00;1.98;;;3.30;99.90;;;;;;5035147;28;20481;-77
2021/04/14 04:03:31;;;;;;;4.32;1.90;;;3.20;99.90;;;;;;5035114;28;20087;-77
2021/04/14 04:05:57;;;;;;;5.63;1.77;;;2.70;99.90;;;;;;5035317;28;20034;-77
2021/04/14 04:08:23;;;;;;;2.63;1.75;;;2.70;99.90;;;;;;5017325;28;20029;-77
2021/04/14 04:10:49;;;;;;;4.03;1.90;;;3.00;99.90;;;;;;5017155;28;20408;-77
2021/04/14 04:13:16;;;;;;;4.97;1.80;;;3.20;99.90;;;;;;5034917;28;20036;-77
2021/04/14 04:15:42;;;;;;;8.02;2.17;;;2.90;99.90;;;;;;5035138;28;20028;-77
2021/04/14 04:18:07;;;;;;;4.03;2.17;;;2.90;99.90;;;;;;5035090;28;20017;-77
2021/04/14 04:20:35;;;;;;;4.40;2.15;;;3.00;99.90;;;;;;5035095;28;20524;-77
2021/04/14 04:23:02;;;;;;;6.15;2.22;;;2.60;99.90;;;;;;5016987;28;20053;-78
2021/04/14 04:25:29;;;;;;;3.58;1.90;;;2.30;99.90;;;;;;5034687;28;20022;-76
2021/04/14 04:27:55;;;;;;;3.63;2.10;;;2.40;99.90;;;;;;5034671;28;20041;-77
2021/04/14 04:30:21;;;;;;;6.18;2.30;;;2.60;99.90;;;;;;5034775;28;20030;-77
2021/04/14 04:32:47;;;;;;;3.75;2.30;;;3.00;99.90;;;;;;5034499;28;20092;-77
2021/04/14 04:35:13;;;;;;;5.82;2.22;;;2.80;99.90;;;;;;5016806;28;20028;-77
2021/04/14 04:37:39;;;;;;;9.80;2.80;;;2.70;99.90;;;;;;5016666;28;20026;-77
2021/04/14 04:40:06;;;;;;;6.30;2.55;;;2.50;99.90;;;;;;5016412;28;20055;-77
2021/04/14 04:42:32;;;;;;;7.63;2.30;;;2.60;99.90;;;;;;5034400;28;20377;-77
2021/04/14 04:44:58;;;;;;;5.72;2.50;;;2.40;99.90;;;;;;5016801;28;20030;-77
2021/04/14 04:47:24;;;;;;;5.80;2.20;;;2.20;99.90;;;;;;5016574;28;20208;-77
2021/04/14 04:49:49;;;;;;;4.13;1.90;;;2.50;99.90;;;;;;5034162;28;20025;-77
2021/04/14 04:52:15;;;;;;;2.35;1.90;;;2.50;99.90;;;;;;5016388;28;20021;-77
2021/04/14 04:54:41;;;;;;;5.47;2.20;;;2.60;99.90;;;;;;5034374;28;20025;-77
2021/04/14 04:57:07;;;;;;;14.90;5.45;;;2.90;99.90;;;;;;5034109;28;20025;-77
2021/04/14 04:59:33;;;;;;;6.60;2.35;;;2.80;99.90;;;;;;5034088;28;20029;-77
2021/04/14 05:01:59;;;;;;;4.03;1.95;;;2.20;99.90;;;;;;5033967;28;20504;-77
2021/04/14 05:04:26;;;;;;;5.35;2.25;;;2.70;99.90;;;;;;5034183;28;20100;-77
2021/04/14 05:06:52;;;;;;;6.57;3.30;;;3.20;99.90;;;;;;5016162;28;20374;-77
2021/04/14 05:09:17;;;;;;;9.63;3.13;;;3.00;99.90;;;;;;5033861;28;20025;-77
2021/04/14 05:11:43;;;;;;;3.80;2.30;;;2.60;99.90;;;;;;5033778;28;20427;-77
2021/04/14 05:14:10;;;;;;;7.00;2.47;;;2.70;99.90;;;;;;5016089;28;20021;-77
2021/04/14 05:16:36;;;;;;;8.88;2.80;;;2.60;99.90;;;;;;5034021;28;20029;-77
2021/04/14 05:19:02;;;;;;;7.53;2.67;;;2.20;99.90;;;;;;5033655;28;20022;-76
2021/04/14 05:21:29;;;;;;;9.32;3.08;;;2.50;99.90;;;;;;5033696;28;20473;-77
2021/04/14 05:23:55;;;;;;;6.80;2.65;;;2.60;99.90;;;;;;5033597;28;20472;-77
2021/04/14 05:26:20;;;;;;;4.10;2.38;;;2.70;99.90;;;;;;5033859;28;20021;-77
2021/04/14 05:28:46;;;;;;;8.77;2.97;;;2.70;99.90;;;;;;5015843;28;20025;-77
2021/04/14 05:31:12;;;;;;;15.38;2.90;;;2.70;99.90;;;;;;5033449;28;20018;-77
2021/04/14 05:33:39;;;;;;;5.20;2.83;;;2.70;99.90;;;;;;5033820;28;20491;-78
2021/04/14 05:36:05;;;;;;;4.55;2.70;;;2.80;99.90;;;;;;5033466;28;20026;-77
2021/04/14 05:38:31;;;;;;;4.82;2.58;;;3.00;99.90;;;;;;5033259;28;20396;-77
2021/04/14 05:40:58;;;;;;;7.88;2.78;;;3.00;99.90;;;;;;5015577;28;20054;-76
2021/04/14 05:43:28;;;;;;;7.32;3.30;;;3.30;99.90;;;;;;5015625;28;20112;-77
2021/04/14 05:45:56;;;;;;;11.80;4.03;;;3.10;99.90;;;;;;5015628;28;20405;-77
2021/04/14 05:48:22;;;;;;;8.68;4.82;;;3.20;99.90;;;;;;5033290;28;20025;-77
2021/04/14 05:50:47;;;;;;;8.77;3.75;;;3.10;99.90;;;;;;5033162;28;20053;-77
2021/04/14 05:53:13;;;;;;;6.75;2.90;;;3.30;99.90;;;;;;5033537;28;20515;-77
2021/04/14 05:55:39;;;;;;;6.28;3.42;;;3.30;99.90;;;;;;5032649;28;20109;-76
2021/04/14 05:58:05;;;;;;;5.88;3.00;;;3.60;99.90;;;;;;5033163;28;20018;-77
2021/04/14 06:00:30;;;;;;;12.52;3.10;;;3.30;99.90;;;;;;5033005;28;20037;-77
2021/04/14 06:02:56;;;;;;;7.20;3.47;;;3.00;99.90;;;;;;5033517;28;20029;-76
2021/04/14 06:05:23;;;;;;;10.50;3.47;;;3.00;99.90;;;;;;5015307;28;20032;-78
2021/04/14 06:07:49;;;;;;;9.65;3.53;;;2.60;99.90;;;;;;5032856;28;20064;-78
2021/04/14 06:10:17;;;;;;;5.18;3.08;;;2.70;99.90;;;;;;5015021;28;20027;-78
2021/04/14 06:12:43;;;;;;;10.27;4.00;;;2.70;99.90;;;;;;5032922;28;20079;-77
2021/04/14 06:15:13;;;;;;;7.93;3.60;;;2.80;99.90;;;;;;5032861;28;20029;-77
2021/04/14 06:17:39;;;;;;;9.65;4.22;;;2.50;99.90;;;;;;5015041;28;20029;-77
2021/04/14 06:20:07;;;;;;;8.15;4.22;;;2.50;99.90;;;;;;5032671;28;20078;-77
2021/04/14 06:22:34;;;;;;;9.35;4.15;;;2.50;99.90;;;;;;5015061;28;20025;-77
2021/04/14 06:25:00;;;;;;;10.52;4.72;;;2.70;99.90;;;;;;5015135;28;20029;-77
2021/04/14 06:27:39;;;;;;;9.77;4.63;;;2.70;99.90;;;;;;5032909;28;20021;-77
2021/04/14 06:30:06;;;;;;;10.13;4.22;;;2.80;99.90;;;;;;5015125;28;20541;-77
2021/04/14 06:32:32;;;;;;;13.25;5.60;;;3.10;99.90;;;;;;5033121;28;20018;-77
2021/04/14 06:34:58;;;;;;;14.48;6.68;;;3.10;99.90;;;;;;5033100;28;20453;-77
2021/04/14 06:37:24;;;;;;;10.48;4.97;;;3.10;99.90;;;;;;5032898;28;20028;-77
2021/04/14 06:40:06;;;;;;;10.63;5.18;;;3.20;99.90;;;;;;5015043;28;20392;-76
2021/04/14 06:43:05;;;;;;;12.15;4.63;;;3.20;99.90;;;;;;5013368;28;20117;-77
2021/04/14 06:45:40;;;;;;;15.88;5.78;;;3.30;99.90;;;;;;4995378;28;20366;-77
2021/04/14 06:48:05;;;;;;;;;;;3.50;99.90;;;;;;4995874;28;20477;-77
2021/04/14 06:50:34;;;;;;;9.43;3.78;;;3.60;99.90;;;;;;4995250;28;19910;-77
2021/04/14 06:53:25;;;;;;;7.22;3.28;;;3.60;99.90;;;;;;4995293;28;20033;-77
2021/04/14 06:56:02;;;;;;;10.25;3.30;;;3.50;99.90;;;;;;5012958;28;20026;-76
2021/04/14 06:58:48;;;;;;;9.50;3.20;;;3.60;99.90;;;;;;4995339;28;20510;-77
2021/04/14 07:01:20;;;;;;;8.65;3.03;;;3.60;99.90;;;;;;4995300;28;20057;-77
2021/04/14 07:03:49;;;;;;;7.80;3.25;;;3.70;99.90;;;;;;4995195;28;20076;-76
2021/04/14 07:06:20;;;;;;;6.97;3.13;;;3.90;99.90;;;;;;4995495;28;20057;-77
2021/04/14 07:08:56;;;;;;;6.53;3.10;;;3.90;99.90;;;;;;4996851;28;20026;-77
2021/04/14 07:11:23;;;;;;;9.40;3.22;;;4.00;99.90;;;;;;5016457;28;20038;-77
2021/04/14 07:13:49;;;;;;;10.65;3.67;;;4.00;99.90;;;;;;5016429;28;20414;-77
2021/04/14 07:16:24;;;;;;;7.45;3.65;;;4.30;99.90;;;;;;4999120;28;20161;-77
2021/04/14 07:18:59;;;;;;;6.88;3.13;;;4.40;99.90;;;;;;4998516;28;20022;-77
2021/04/14 07:21:29;;;;;;;8.43;3.70;;;4.60;99.90;;;;;;4998697;28;20030;-77
2021/04/14 07:24:03;;;;;;;9.55;3.65;;;4.70;99.90;;;;;;4998382;28;20026;-77
2021/04/14 07:26:46;;;;;;;6.75;3.70;;;4.70;99.90;;;;;;5016189;28;20362;-77
2021/04/14 07:29:48;;;;;;;8.43;3.85;;;4.60;99.90;;;;;;4998325;28;20477;-77
2021/04/14 07:32:38;;;;;;;8.88;3.90;;;4.50;99.90;;;;;;4982365;28;20066;-77
2021/04/14 07:35:16;;;;;;;6.40;3.05;;;4.40;99.90;;;;;;5016128;28;20473;-78
2021/04/14 07:38:07;;;;;;;5.10;2.67;;;4.60;99.90;;;;;;5015614;28;20030;-78
2021/04/14 07:40:53;;;;;;;6.95;2.38;;;4.80;99.90;;;;;;5002815;28;20045;-78
2021/04/14 07:43:19;;;;;;;7.78;2.40;;;5.10;99.90;;;;;;5017666;28;20124;-78
2021/04/14 07:45:48;;;;;;;6.40;2.22;;;5.20;99.90;;;;;;5017618;28;20061;-78
2021/04/14 07:48:27;;;;;;;9.98;3.10;;;5.30;99.90;;;;;;5035298;28;20036;-78
2021/04/14 07:50:58;;;;;;;7.85;3.38;;;5.40;99.90;;;;;;5017501;28;20108;-79
2021/04/14 07:53:32;;;;;;;9.88;3.30;;;5.50;99.90;;;;;;5035345;28;20049;-78
2021/04/14 07:56:20;;;;;;;13.65;3.55;;;5.60;99.90;;;;;;5035245;28;20029;-78
2021/04/14 07:58:50;;;;;;;8.77;2.45;;;5.80;99.90;;;;;;5017340;28;20032;-78
2021/04/14 08:01:22;;;;;;;8.85;2.30;;;6.00;99.90;;;;;;5017313;28;20029;-78
2021/04/14 08:03:50;;;;;;;7.07;2.70;;;6.00;99.90;;;;;;5017260;28;20036;-78
2021/04/14 08:06:17;;;;;;;5.30;2.88;;;6.10;99.90;;;;;;5017189;28;20031;-78
2021/04/14 08:08:45;;;;;;;5.93;2.45;;;6.30;99.90;;;;;;5034973;28;20029;-78
2021/04/14 08:11:33;;;;;;;10.57;2.50;;;6.40;99.90;;;;;;5034895;28;20061;-79
2021/04/14 08:14:13;;;;;;;11.05;2.70;;;6.50;99.90;;;;;;5016946;28;20120;-78
2021/04/14 08:16:47;;;;;;;7.57;2.78;;;6.70;99.90;;;;;;5017189;28;20029;-78
2021/04/14 08:19:27;;;;;;;9.93;2.70;;;6.60;99.90;;;;;;5034660;28;20530;-78
2021/04/14 08:22:21;;;;;;;4.53;2.50;;;6.70;99.90;;;;;;5035302;28;20650;-78
2021/04/14 08:25:01;;;;;;;7.80;2.53;;;6.60;99.90;;;;;;5017097;28;20029;-79
2021/04/14 08:27:38;;;;;;;4.03;2.40;;;6.90;99.90;;;;;;5016861;28;20125;-77
2021/04/14 08:30:13;;;;;;;7.38;2.50;;;6.90;99.90;;;;;;5034524;28;20110;-77
2021/04/14 08:32:53;;;;;;;6.53;2.38;;;7.20;99.90;;;;;;5034820;28;20029;-77
2021/04/14 08:35:28;;;;;;;5.90;2.80;;;7.40;99.90;;;;;;5016642;28;20025;-77
2021/04/14 08:38:00;;;;;;;6.45;2.70;;;7.20;99.90;;;;;;5016620;28;20026;-78
2021/04/14 08:40:27;;;;;;;8.75;2.53;;;7.50;99.90;;;;;;5016392;28;20033;-79
2021/04/14 08:42:55;;;;;;;7.40;2.30;;;7.60;99.90;;;;;;5034643;28;20481;-80
2021/04/14 08:45:26;;;;;;;8.98;2.60;;;7.70;99.90;;;;;;5016523;28;20435;-79
2021/04/14 08:48:07;;;;;;;12.52;2.42;;;7.90;99.90;;;;;;5016501;28;20374;-80
2021/04/14 08:50:37;;;;;;;7.53;2.47;;;7.60;99.90;;;;;;5034063;28;20061;-80
2021/04/14 08:53:14;;;;;;;10.18;2.80;;;7.60;99.90;;;;;;5016272;28;20385;-79
2021/04/14 08:55:41;;;;;;;8.38;2.47;;;7.70;99.90;;;;;;5016462;28;20048;-79
2021/04/14 08:58:08;;;;;;;9.60;2.33;;;8.00;99.90;;;;;;5016251;28;20492;-79
2021/04/14 09:00:33;;;;;;;8.45;2.50;;;8.10;99.90;;;;;;5034032;28;20025;-78
2021/04/14 09:03:03;;;;;;;5.47;2.45;;;8.50;99.90;;;;;;5016202;28;20025;-79
2021/04/14 09:05:29;;;;;;;7.47;2.60;;;8.50;99.90;;;;;;5016152;28;20033;-78
2021/04/14 09:07:56;;;;;;;5.75;2.45;;;8.60;99.30;;;;;;5033921;28;20365;-79
2021/04/14 09:10:50;;;;;;;9.63;2.75;;;8.70;99.90;;;;;;5034014;28;20052;-78
2021/04/14 09:13:15;;;;;;;10.57;2.35;;;8.70;99.50;;;;;;5016077;28;20021;-80
2021/04/14 09:16:00;;;;;;;9.93;2.40;;;8.70;98.60;;;;;;5016034;28;20366;-78
2021/04/14 09:18:30;;;;;;;4.03;1.73;;;8.90;98.90;;;;;;5033762;28;20477;-78
2021/04/14 09:21:19;;;;;;;8.70;2.60;;;8.90;99.10;;;;;;5033651;28;20393;-78
2021/04/14 09:24:06;;;;;;;8.48;2.35;;;9.20;98.40;;;;;;5033571;28;20053;-79
2021/04/14 09:26:37;;;;;;;9.00;2.60;;;8.60;98.50;;;;;;5033583;28;20017;-78
2021/04/14 09:29:27;;;;;;;6.70;2.25;;;8.20;98.60;;;;;;5033526;28;20033;-78
2021/04/14 09:31:55;;;;;;;10.23;3.00;;;7.90;99.10;;;;;;4985158;28;20041;-78
2021/04/14 09:34:30;;;;;;;6.10;2.53;;;7.80;99.40;;;;;;5015703;28;20500;-78
2021/04/14 09:37:16;;;;;;;8.95;2.67;;;7.70;99.90;;;;;;5015719;28;20028;-78
2021/04/14 09:40:00;;;;;;;7.03;2.53;;;7.70;99.90;;;;;;5015560;28;20477;-78
2021/04/14 09:42:25;;;;;;;3.63;2.33;;;7.70;99.90;;;;;;5012194;28;20137;-78
2021/04/14 09:44:55;;;;;;;4.47;2.38;;;7.70;99.90;;;;;;5013555;28;20445;-78
2021/04/14 09:47:30;;;;;;;9.15;2.83;;;7.60;99.90;;;;;;5013495;28;20018;-78
2021/04/14 09:50:17;;;;;;;8.73;2.58;;;7.50;99.90;;;;;;5012132;28;20478;-78
2021/04/14 09:52:43;;;;;;;6.85;2.25;;;7.50;99.70;;;;;;5012197;28;20022;-79
2021/04/14 09:55:15;;;;;;;8.38;2.28;;;7.40;99.50;;;;;;5013364;28;20025;-79
2021/04/14 09:57:45;;;;;;;7.43;2.47;;;7.30;99.50;;;;;;5013492;28;20057;-77
2021/04/14 10:00:23;;;;;;;7.13;2.78;;;7.30;99.30;;;;;;5012226;28;20030;-78
2021/04/14 10:02:52;;;;;;;7.20;2.80;;;7.40;99.10;;;;;;5013751;28;20026;-79
2021/04/14 10:05:19;;;;;;;5.38;2.17;;;7.40;98.50;;;;;;5012151;28;20072;-79
2021/04/14 10:07:46;;;;;;;8.43;3.42;;;7.40;98.70;;;;;;5012415;28;20022;-78
2021/04/14 10:10:19;;;;;;;6.78;2.85;;;7.40;99.10;;;;;;5011978;28;20033;-79
2021/04/14 10:12:45;;;;;;;12.05;2.30;;;7.30;98.50;;;;;;5013384;28;20106;-80
2021/04/14 10:15:12;;;;;;;7.88;2.67;;;7.30;99.00;;;;;;5013292;28;20443;-79
2021/04/14 10:17:37;;;;;;;8.40;2.33;;;7.40;98.30;;;;;;5011909;28;20068;-78
2021/04/14 10:20:20;;;;;;;6.43;2.47;;;7.40;98.20;;;;;;5013293;28;20022;-79
2021/04/14 10:22:49;;;;;;;5.03;2.40;;;7.40;98.70;;;;;;5011986;28;20474;-77
2021/04/14 10:25:17;;;;;;;8.27;2.80;;;7.50;99.00;;;;;;5013430;28;20017;-78
2021/04/14 10:27:44;;;;;;;8.95;2.70;;;7.60;98.30;;;;;;5013074;28;20018;-78
2021/04/14 10:30:17;;;;;;;8.45;2.60;;;7.70;97.90;;;;;;5013008;28;20100;-79
2021/04/14 10:32:43;;;;;;;10.05;3.80;;;7.70;98.00;;;;;;5013090;28;20041;-79
2021/04/14 10:35:12;;;;;;;6.68;2.90;;;7.90;98.40;;;;;;5011748;28;20484;-79
2021/04/14 10:37:46;;;;;;;7.78;2.50;;;7.60;98.20;;;;;;5013160;28;20022;-77
2021/04/14 10:40:20;;;;;;;7.80;3.10;;;7.30;98.40;;;;;;5011823;28;20444;-77
2021/04/14 10:42:48;;;;;;;10.32;2.75;;;7.40;99.00;;;;;;5013346;28;20045;-77
2021/04/14 10:45:17;;;;;;;8.82;2.90;;;7.50;98.10;;;;;;5016740;28;20025;-77
2021/04/14 10:47:44;;;;;;;7.60;2.47;;;7.60;97.50;;;;;;5015299;28;20041;-77
2021/04/14 10:50:18;;;;;;;9.98;3.00;;;7.60;97.70;;;;;;5015528;28;20445;-77
2021/04/14 10:52:44;;;;;;;;;;;7.70;97.60;;;;;;5017027;28;20485;-77
2021/04/14 10:55:17;;;;;;;5.32;2.00;;;7.70;95.30;;;;;;5015344;28;19905;-79
2021/04/14 10:57:47;;;;;;;3.78;1.85;;;7.70;94.60;;;;;;5016522;28;20110;-79
2021/04/14 11:00:20;;;;;;;5.30;1.80;;;7.70;95.10;;;;;;5016524;28;20034;-78
2021/04/14 11:02:49;;;;;;;4.75;1.92;;;7.70;94.10;;;;;;5016563;28;20501;-80
2021/04/14 11:05:18;;;;;;;3.22;1.95;;;7.70;93.70;;;;;;5015153;28;20030;-80
2021/04/14 11:07:45;;;;;;;6.93;2.45;;;7.60;95.30;;;;;;5015103;28;20370;-80
2021/04/14 11:10:22;;;;;;;4.95;2.17;;;7.70;94.00;;;;;;5014944;28;20029;-79
2021/04/14 11:12:49;;;;;;;4.63;2.10;;;7.80;93.50;;;;;;5015056;28;20098;-78
2021/04/14 11:15:19;;;;;;;7.18;2.05;;;8.00;93.80;;;;;;5016222;28;20018;-78
2021/04/14 11:17:56;;;;;;;5.63;1.70;;;7.90;93.40;;;;;;5015004;28;20560;-78
2021/04/14 11:20:25;;;;;;;5.90;1.70;;;8.10;93.30;;;;;;5014888;28;20057;-78
2021/04/14 11:22:54;;;;;;;5.72;2.00;;;8.20;93.00;;;;;;5016004;28;20026;-79
2021/04/14 11:25:36;;;;;;;5.30;2.30;;;8.10;92.90;;;;;;5016324;28;20029;-78
2021/04/14 11:28:09;;;;;;;7.68;2.50;;;8.00;92.50;;;;;;5016271;28;20053;-79
2021/04/14 11:30:56;;;;;;;5.60;2.10;;;8.00;96.90;;;;;;5014815;28;20552;-79
2021/04/14 11:33:36;;;;;;;5.43;2.25;;;7.60;98.30;;;;;;5014598;28;20061;-78
2021/04/14 11:36:03;;;;;;;3.83;2.17;;;7.30;99.40;;;;;;5016143;28;20018;-77
2021/04/14 11:38:28;;;;;;;5.47;2.30;;;7.20;99.90;;;;;;5014309;28;20084;-78
2021/04/14 11:40:57;;;;;;;7.10;2.47;;;7.00;99.90;;;;;;5015861;28;20054;-77
2021/04/14 11:43:28;;;;;;;5.43;2.15;;;6.90;99.80;;;;;;5035471;28;20120;-78
2021/04/14 11:45:58;;;;;;;7.50;2.40;;;6.90;99.80;;;;;;5017720;28;20029;-77
2021/04/14 11:48:40;;;;;;;4.63;1.77;;;6.80;99.90;;;;;;5017591;28;20029;-77
2021/04/14 11:51:12;;;;;;;5.00;2.13;;;6.80;99.90;;;;;;5017343;28;20025;-77
2021/04/14 11:53:52;;;;;;;11.82;2.63;;;7.00;99.90;;;;;;5016557;28;20032;-79
2021/04/14 11:56:37;;;;;;;4.70;2.10;;;7.10;99.30;;;;;;5017521;28;20022;-77
2021/04/14 11:59:06;;;;;;;6.35;2.15;;;7.20;98.70;;;;;;5017545;28;20041;-77
2021/04/14 12:01:35;;;;;;;7.32;2.25;;;7.20;98.50;;;;;;5017349;28;20459;-78
2021/04/14 12:04:13;;;;;;;7.60;2.05;;;7.30;98.70;;;;;;5017484;28;20056;-77
2021/04/14 12:06:39;;;;;;;7.20;2.67;;;7.20;99.00;;;;;;5035246;28;20029;-77
2021/04/14 12:09:05;;;;;;;6.72;2.28;;;7.20;99.10;;;;;;5017278;28;20030;-77
2021/04/14 12:11:32;;;;;;;5.03;2.00;;;7.40;99.50;;;;;;5017122;28;20075;-78
2021/04/14 12:13:57;;;;;;;6.10;2.40;;;7.50;98.80;;;;;;5017090;28;20507;-78
2021/04/14 12:16:23;;;;;;;4.95;2.10;;;7.50;98.70;;;;;;5017082;28;20108;-77
2021/04/14 12:18:49;;;;;;;6.60;2.47;;;7.70;98.70;;;;;;5017152;28;20025;-79
2021/04/14 12:21:14;;;;;;;5.57;2.05;;;7.70;98.50;;;;;;5034813;28;20083;-77
2021/04/14 12:23:40;;;;;;;8.55;2.25;;;7.60;98.20;;;;;;5034755;28;20039;-77
2021/04/14 12:26:06;;;;;;;8.10;1.90;;;7.30;99.80;;;;;;5016961;28;20029;-77
2021/04/14 12:28:32;;;;;;;11.88;2.25;;;7.40;99.90;;;;;;5016856;28;20056;-78
2021/04/14 12:30:58;;;;;;;5.07;2.22;;;7.30;99.90;;;;;;5016785;28;20108;-78
2021/04/14 12:33:24;;;;;;;5.20;2.20;;;7.30;99.90;;;;;;5016839;28;20385;-77
2021/04/14 12:35:50;;;;;;;7.43;2.67;;;7.20;99.90;;;;;;5016787;28;20017;-77
2021/04/14 12:38:16;;;;;;;7.82;2.42;;;7.10;99.90;;;;;;5016669;28;20026;-77
2021/04/14 12:40:41;;;;;;;5.82;1.95;;;7.00;99.90;;;;;;5034415;28;20053;-76
2021/04/14 12:43:07;;;;;;;3.97;2.33;;;6.90;99.90;;;;;;4997033;28;20429;-77
2021/04/14 12:45:47;;;;;;;5.45;2.60;;;6.80;99.90;;;;;;5014589;28;20026;-77
2021/04/14 12:48:18;;;;;;;3.63;1.92;;;6.70;99.90;;;;;;4996937;28;20508;-77
2021/04/14 12:51:11;;;;;;;4.32;1.95;;;6.70;99.90;;;;;;4996726;28;20022;-77
2021/04/14 12:53:42;;;;;;;6.28;2.60;;;6.70;99.90;;;;;;4996812;28;20424;-77
2021/04/14 12:56:15;;;;;;;6.25;2.20;;;6.70;99.90;;;;;;4996782;28;20025;-77
2021/04/14 12:58:42;;;;;;;6.70;2.50;;;6.70;99.90;;;;;;4996642;28;20026;-76
2021/04/14 13:01:10;;;;;;;8.45;2.70;;;6.50;99.90;;;;;;4996638;28;20083;-77
2021/04/14 13:03:50;;;;;;;4.53;2.60;;;6.40;99.90;;;;;;4996628;28;20022;-77
2021/04/14 13:06:27;;;;;;;6.10;2.78;;;6.10;99.90;;;;;;5014393;28;20424;-78
2021/04/14 13:08:54;;;;;;;5.07;1.95;;;5.90;99.90;;;;;;4996586;28;20096;-80
2021/04/14 13:11:43;;;;;;;3.67;2.47;;;5.80;99.90;;;;;;4996441;28;20034;-79